Time;durP1;ratioP1;P1;durP2;ratioP2;P2;SDS_P1;SDS_P2;PMS_P1;PMS_P2;Temp;Humidity;BMP_temperature;BMP_pressure;BME280_temperature;BME280_humidity;BME280_pressure;Samples;Min_cycle;Max_cycle;Signal;HPM_P1;HPM_P2
2022/01/26 00:00:00;;;;;;;0.83;0.83;;;-0.70;99.90;;;;;;4900594;29;20405;-80
2022/01/26 00:07:57;;;;;;;2.20;0.83;;;-0.80;99.90;;;;;;4899603;29;20409;-80
2022/01/26 00:10:24;;;;;;;1.57;1.57;;;-0.80;99.90;;;;;;4899720;29;20512;-80
2022/01/26 00:12:52;;;;;;;0.80;0.80;;;-0.80;99.90;;;;;;4899729;29;20424;-80
2022/01/26 00:15:20;;;;;;;0.30;0.30;;;-0.80;99.90;;;;;;4899259;29;20459;-80
2022/01/26 00:17:46;;;;;;;0.50;0.50;;;-0.90;99.90;;;;;;4899240;29;20488;-80
2022/01/26 00:20:20;;;;;;;0.30;0.30;;;-0.90;99.90;;;;;;4899142;29;20451;-81
2022/01/26 00:23:05;;;;;;;0.50;0.50;;;-0.90;99.90;;;;;;4899532;29;20433;-80
2022/01/26 00:25:42;;;;;;;1.27;1.17;;;-0.90;99.90;;;;;;4899376;29;20476;-80
2022/01/26 00:39:07;;;;;;;0.30;0.20;;;-1.00;99.90;;;;;;4899307;29;20446;-81
2022/01/26 00:41:36;;;;;;;0.37;0.37;;;-1.00;99.90;;;;;;4899011;29;20437;-80
2022/01/26 00:44:06;;;;;;;2.43;0.60;;;-1.00;99.90;;;;;;4899316;29;20499;-81
2022/01/26 00:46:34;;;;;;;1.47;1.37;;;-1.10;99.90;;;;;;4899002;29;20510;-81
2022/01/26 00:49:00;;;;;;;0.40;0.40;;;-1.00;99.90;;;;;;4899094;29;20464;-81
2022/01/26 00:51:27;;;;;;;0.40;0.40;;;-1.10;99.90;;;;;;4898610;29;20441;-81
2022/01/26 00:54:01;;;;;;;1.10;1.10;;;-1.00;99.90;;;;;;4898716;29;20433;-81
2022/01/26 00:56:29;;;;;;;0.30;0.30;;;-1.00;99.90;;;;;;4898985;29;20496;-81
2022/01/26 00:58:56;;;;;;;0.53;0.53;;;-1.00;99.90;;;;;;4898821;29;20452;-81
2022/01/26 01:01:24;;;;;;;0.30;0.30;;;-1.10;99.90;;;;;;4898993;29;20457;-81
2022/01/26 01:03:51;;;;;;;2.30;2.20;;;-1.00;99.90;;;;;;4898780;29;20438;-81
2022/01/26 01:06:23;;;;;;;0.53;0.53;;;-1.10;99.90;;;;;;4898632;29;20528;-81
2022/01/26 01:08:50;;;;;;;0.30;0.20;;;-1.00;99.90;;;;;;4898966;29;20428;-81
2022/01/26 01:11:18;;;;;;;0.60;0.60;;;-1.00;99.90;;;;;;4898535;29;20929;-81
2022/01/26 01:13:45;;;;;;;0.93;0.93;;;-1.00;99.90;;;;;;4898546;29;20451;-81
2022/01/26 01:16:17;;;;;;;0.30;0.30;;;-1.00;99.90;;;;;;4898473;29;20481;-81
2022/01/26 01:18:52;;;;;;;0.43;0.43;;;-1.00;99.90;;;;;;4898616;29;20524;-81
2022/01/26 01:24:26;;;;;;;0.50;0.50;;;-1.10;99.90;;;;;;4898153;29;20438;-81
2022/01/26 01:27:05;;;;;;;0.40;0.40;;;-1.10;99.90;;;;;;4897920;29;20561;-81
2022/01/26 01:29:38;;;;;;;0.60;0.60;;;-1.00;99.90;;;;;;4898190;29;20447;-81
2022/01/26 01:32:12;;;;;;;0.40;0.40;;;-0.90;99.90;;;;;;4898446;29;20445;-79
2022/01/26 01:34:41;;;;;;;0.40;0.40;;;-0.90;99.90;;;;;;4898371;29;20441;-79
2022/01/26 01:37:13;;;;;;;0.60;0.43;;;-0.90;99.90;;;;;;4897828;29;20512;-81
2022/01/26 01:39:39;;;;;;;0.30;0.30;;;-0.90;99.90;;;;;;4898614;29;20453;-81
2022/01/26 01:42:08;;;;;;;2.53;0.60;;;-0.90;99.90;;;;;;4898074;29;20441;-81
2022/01/26 01:44:37;;;;;;;0.30;0.30;;;-1.00;99.90;;;;;;4898207;29;20463;-81
2022/01/26 01:47:05;;;;;;;0.40;0.40;;;-0.90;99.90;;;;;;4898250;29;20464;-81
2022/01/26 01:49:32;;;;;;;0.63;0.63;;;-0.90;99.90;;;;;;4898256;29;20505;-81
2022/01/26 01:52:03;;;;;;;1.03;1.00;;;-0.90;99.90;;;;;;4898227;29;20463;-81
2022/01/26 01:54:31;;;;;;;0.73;0.60;;;-0.90;99.90;;;;;;4898254;29;20437;-81
2022/01/26 01:56:59;;;;;;;2.77;2.10;;;-1.00;99.90;;;;;;4898112;29;20485;-82
2022/01/26 01:59:28;;;;;;;0.80;0.80;;;-1.00;99.90;;;;;;4897885;29;20952;-81
2022/01/26 02:01:56;;;;;;;0.83;0.83;;;-0.90;99.90;;;;;;4898070;29;20444;-81
2022/01/26 02:04:23;;;;;;;1.73;1.60;;;-1.00;99.90;;;;;;4898106;29;20456;-81
2022/01/26 02:06:50;;;;;;;0.40;0.40;;;-1.00;99.90;;;;;;4897777;29;20932;-81
2022/01/26 02:09:18;;;;;;;0.30;0.30;;;-0.90;99.90;;;;;;4898050;29;20461;-81
2022/01/26 02:11:47;;;;;;;1.70;1.23;;;-1.00;99.90;;;;;;4898047;29;20463;-81
2022/01/26 02:14:23;;;;;;;0.50;0.50;;;-1.00;99.90;;;;;;4897611;29;20940;-81
2022/01/26 02:16:58;;;;;;;0.57;0.57;;;-1.00;99.90;;;;;;4897890;29;20488;-81
2022/01/26 02:50:13;;;;;;;0.73;0.73;;;-1.20;99.90;;;;;;5090195;28;20450;-80
2022/01/26 02:55:36;;;;;;;0.30;0.30;;;-1.20;99.90;;;;;;5089921;28;20509;-80
2022/01/26 02:58:39;;;;;;;1.03;1.03;;;-1.10;99.90;;;;;;5090327;28;20490;-80
2022/01/26 03:01:25;;;;;;;0.30;0.30;;;-1.20;99.90;;;;;;5090242;28;20418;-80
2022/01/26 03:04:00;;;;;;;0.40;0.40;;;-1.10;99.90;;;;;;5090268;28;20428;-80
2022/01/26 03:06:34;;;;;;;1.03;1.00;;;-1.10;99.90;;;;;;5089845;28;21044;-80
2022/01/26 03:09:08;;;;;;;0.77;0.50;;;-1.10;99.90;;;;;;5090389;28;20470;-80
2022/01/26 03:11:38;;;;;;;0.63;0.63;;;-1.20;99.90;;;;;;5090025;28;20475;-80
2022/01/26 03:14:13;;;;;;;0.47;0.47;;;-1.20;99.90;;;;;;5090106;28;20433;-81
2022/01/26 03:16:45;;;;;;;0.60;0.60;;;-1.20;99.90;;;;;;5090648;28;20453;-80
2022/01/26 03:19:19;;;;;;;1.17;0.83;;;-1.20;99.90;;;;;;5089999;28;20553;-80
2022/01/26 03:21:56;;;;;;;0.30;0.30;;;-1.20;99.90;;;;;;5089681;28;20807;-80
2022/01/26 03:30:20;;;;;;;0.67;0.67;;;-1.10;99.90;;;;;;5084962;28;20443;-80
2022/01/26 03:33:09;;;;;;;0.30;0.30;;;-1.10;99.90;;;;;;5081649;28;20441;-80
2022/01/26 03:35:42;;;;;;;0.30;0.30;;;-1.10;99.90;;;;;;5075838;28;20975;-81
2022/01/26 03:38:17;;;;;;;0.30;0.30;;;-1.20;99.90;;;;;;5075870;28;20777;-80
2022/01/26 03:40:44;;;;;;;0.30;0.30;;;-1.20;99.90;;;;;;5075857;28;20851;-81
2022/01/26 03:43:12;;;;;;;0.67;0.60;;;-1.30;99.90;;;;;;5076043;28;20532;-81
2022/01/26 03:45:39;;;;;;;0.30;0.20;;;-1.20;99.90;;;;;;5075678;28;20986;-81
2022/01/26 03:48:06;;;;;;;0.40;0.40;;;-1.20;99.90;;;;;;5076256;28;20448;-81
2022/01/26 03:50:32;;;;;;;0.30;0.30;;;-1.20;99.90;;;;;;5075816;28;20491;-81
2022/01/26 03:52:59;;;;;;;0.50;0.50;;;-1.20;99.90;;;;;;5075846;28;20444;-81
2022/01/26 03:55:26;;;;;;;0.60;0.60;;;-1.20;99.90;;;;;;5075461;28;20468;-81
2022/01/26 03:57:53;;;;;;;1.47;1.37;;;-1.20;99.90;;;;;;5075409;28;20814;-81
2022/01/26 04:00:21;;;;;;;0.53;0.53;;;-1.30;99.90;;;;;;5075704;28;20445;-81
2022/01/26 04:02:48;;;;;;;0.40;0.40;;;-1.20;99.90;;;;;;5075782;28;20441;-81
2022/01/26 04:05:14;;;;;;;0.57;0.57;;;-1.20;99.90;;;;;;5075226;28;21033;-81
2022/01/26 04:07:43;;;;;;;0.43;0.43;;;-1.20;99.90;;;;;;5075578;28;20459;-81
2022/01/26 04:10:18;;;;;;;0.97;0.97;;;-1.20;99.90;;;;;;5075756;28;20437;-81
2022/01/26 04:12:45;;;;;;;0.40;0.40;;;-1.30;99.90;;;;;;5075418;28;20428;-81
2022/01/26 04:15:21;;;;;;;0.33;0.33;;;-1.30;99.90;;;;;;5075319;28;20461;-81
2022/01/26 04:17:50;;;;;;;0.40;0.33;;;-1.30;99.90;;;;;;5075394;28;20429;-81
2022/01/26 04:20:17;;;;;;;0.40;0.40;;;-1.30;99.90;;;;;;5074866;28;20471;-81
2022/01/26 04:22:53;;;;;;;1.03;1.03;;;-1.30;99.90;;;;;;5075300;28;20522;-81
2022/01/26 04:25:23;;;;;;;0.50;0.50;;;-1.30;99.90;;;;;;5075187;28;20479;-81
2022/01/26 04:27:53;;;;;;;1.00;1.00;;;-1.30;99.90;;;;;;5075174;28;20482;-81
2022/01/26 04:30:20;;;;;;;0.30;0.30;;;-1.40;99.90;;;;;;5075684;28;20433;-81
2022/01/26 04:32:47;;;;;;;0.57;0.57;;;-1.40;99.90;;;;;;5074814;28;20426;-81
2022/01/26 04:35:15;;;;;;;0.40;0.40;;;-1.40;99.90;;;;;;5074972;28;20461;-81
2022/01/26 04:38:04;;;;;;;0.67;0.67;;;-1.40;99.90;;;;;;5074506;28;20825;-82
2022/01/26 04:40:37;;;;;;;0.30;0.30;;;-1.40;99.90;;;;;;5074913;28;20882;-81
2022/01/26 04:43:11;;;;;;;0.30;0.30;;;-1.40;99.90;;;;;;5074471;28;20902;-81
2022/01/26 04:45:38;;;;;;;0.40;0.40;;;-1.40;99.90;;;;;;5074098;28;20494;-81
2022/01/26 04:48:05;;;;;;;0.40;0.40;;;-1.40;99.90;;;;;;5074424;28;20824;-81
2022/01/26 04:50:33;;;;;;;0.30;0.20;;;-1.40;99.90;;;;;;5074318;28;20440;-81
2022/01/26 04:53:00;;;;;;;1.57;0.70;;;-1.30;99.90;;;;;;5074326;28;20939;-81
2022/01/26 04:55:27;;;;;;;0.57;0.57;;;-1.20;99.90;;;;;;5074551;28;20447;-81
2022/01/26 04:57:54;;;;;;;0.60;0.60;;;-1.20;99.90;;;;;;5074442;28;20441;-82
2022/01/26 05:00:20;;;;;;;0.30;0.30;;;-1.30;99.90;;;;;;5074230;28;20446;-82
2022/01/26 05:02:47;;;;;;;0.50;0.50;;;-1.30;99.90;;;;;;5074145;28;20919;-81
2022/01/26 05:05:14;;;;;;;0.30;0.30;;;-1.40;99.90;;;;;;5074079;28;20464;-82
2022/01/26 05:07:43;;;;;;;0.30;0.30;;;-1.30;99.90;;;;;;5074085;28;20415;-82
2022/01/26 05:10:10;;;;;;;1.67;1.57;;;-1.40;99.90;;;;;;5074551;28;20420;-82
2022/01/26 05:12:38;;;;;;;0.30;0.30;;;-1.40;99.90;;;;;;5073868;28;21011;-82
2022/01/26 05:15:06;;;;;;;0.50;0.50;;;-1.50;99.90;;;;;;5073786;28;20518;-82
2022/01/26 05:17:32;;;;;;;0.30;0.30;;;-1.40;99.90;;;;;;5074168;28;20456;-82
2022/01/26 05:20:00;;;;;;;1.53;1.53;;;-1.40;99.90;;;;;;5073527;28;20428;-82
2022/01/26 05:22:30;;;;;;;0.30;0.30;;;-1.40;99.90;;;;;;5073803;28;20885;-82
2022/01/26 05:24:58;;;;;;;0.40;0.40;;;-1.40;99.90;;;;;;5073947;28;20439;-82
2022/01/26 05:27:25;;;;;;;1.13;1.00;;;-1.50;99.90;;;;;;5073982;28;20456;-82
2022/01/26 05:29:51;;;;;;;0.97;0.57;;;-1.50;99.90;;;;;;5073640;28;20937;-82
2022/01/26 05:32:19;;;;;;;0.30;0.30;;;-1.40;99.90;;;;;;5073898;28;20443;-82
2022/01/26 05:34:46;;;;;;;0.30;0.30;;;-1.40;99.90;;;;;;5073825;28;20460;-82
2022/01/26 05:37:13;;;;;;;1.60;0.83;;;-1.50;99.90;;;;;;5073832;28;20471;-82
2022/01/26 05:39:40;;;;;;;0.30;0.20;;;-1.50;99.90;;;;;;5073558;28;20425;-80
2022/01/26 05:42:09;;;;;;;0.83;0.83;;;-1.50;99.90;;;;;;5073774;28;20444;-80
2022/01/26 05:44:36;;;;;;;0.50;0.40;;;-1.50;99.90;;;;;;5073773;28;20449;-79
2022/01/26 05:47:06;;;;;;;0.30;0.30;;;-1.50;99.90;;;;;;5073740;28;20448;-80
2022/01/26 05:49:32;;;;;;;0.70;0.70;;;-1.50;99.90;;;;;;5073702;28;20418;-80
2022/01/26 05:51:59;;;;;;;0.73;0.73;;;-1.50;99.90;;;;;;5073601;28;20484;-80
2022/01/26 05:54:26;;;;;;;1.63;1.63;;;-1.40;99.90;;;;;;5073491;28;20782;-79
2022/01/26 05:56:53;;;;;;;1.53;1.53;;;-1.40;99.90;;;;;;5073290;28;20465;-80
2022/01/26 05:59:21;;;;;;;0.30;0.20;;;-1.40;99.90;;;;;;5073592;28;20444;-80
2022/01/26 06:01:48;;;;;;;0.30;0.30;;;-1.40;99.90;;;;;;5073290;28;20444;-80
2022/01/26 06:04:15;;;;;;;0.70;0.67;;;-1.30;99.90;;;;;;5073622;28;20441;-80
2022/01/26 06:06:41;;;;;;;0.53;0.53;;;-1.30;99.90;;;;;;5073521;28;20469;-82
2022/01/26 06:09:08;;;;;;;0.30;0.30;;;-1.30;99.90;;;;;;5073425;28;20437;-83
2022/01/26 06:11:35;;;;;;;0.40;0.40;;;-1.40;99.90;;;;;;5073087;28;20500;-83
2022/01/26 06:14:02;;;;;;;0.30;0.30;;;-1.40;99.90;;;;;;5073391;28;20449;-82
2022/01/26 06:16:30;;;;;;;0.37;0.37;;;-1.40;99.90;;;;;;5073281;28;20473;-82
2022/01/26 06:18:57;;;;;;;0.30;0.30;;;-1.40;99.90;;;;;;5073362;28;20455;-82
2022/01/26 06:21:24;;;;;;;0.60;0.60;;;-1.40;99.90;;;;;;5072896;28;20987;-83
2022/01/26 06:23:50;;;;;;;0.30;0.30;;;-1.40;99.90;;;;;;5073015;28;20911;-83
2022/01/26 06:26:17;;;;;;;1.47;0.50;;;-1.30;99.90;;;;;;5073212;28;20461;-83
2022/01/26 06:28:44;;;;;;;0.30;0.30;;;-1.30;99.90;;;;;;5072998;28;20429;-83
2022/01/26 06:31:15;;;;;;;0.30;0.30;;;-1.30;99.90;;;;;;5073219;28;20410;-83
2022/01/26 06:33:45;;;;;;;0.30;0.30;;;-1.30;99.90;;;;;;5073258;28;20437;-83
2022/01/26 06:36:14;;;;;;;0.33;0.33;;;-1.30;99.90;;;;;;5073288;28;20461;-83
2022/01/26 06:38:42;;;;;;;0.30;0.30;;;-1.40;99.90;;;;;;5073158;28;20423;-83
2022/01/26 06:41:09;;;;;;;0.30;0.30;;;-1.40;99.90;;;;;;5073131;28;20453;-83
2022/01/26 06:43:44;;;;;;;0.40;0.40;;;-1.40;99.90;;;;;;5072857;28;20802;-83
2022/01/26 06:46:18;;;;;;;0.40;0.33;;;-1.40;99.90;;;;;;5073112;28;20527;-82
2022/01/26 06:49:01;;;;;;;0.30;0.30;;;-1.40;99.90;;;;;;5073132;28;20464;-83
2022/01/26 06:51:28;;;;;;;0.40;0.40;;;-1.40;99.90;;;;;;5072986;28;20476;-83
2022/01/26 06:53:55;;;;;;;0.30;0.30;;;-1.40;99.90;;;;;;5073032;28;20456;-83
2022/01/26 06:56:22;;;;;;;0.50;0.50;;;-1.40;99.90;;;;;;5072885;28;20467;-83
2022/01/26 06:58:48;;;;;;;0.77;0.77;;;-1.40;99.90;;;;;;5072729;28;20414;-83
2022/01/26 07:01:15;;;;;;;0.60;0.60;;;-1.50;99.90;;;;;;5073007;28;20444;-83
2022/01/26 07:03:42;;;;;;;0.40;0.40;;;-1.50;99.90;;;;;;5072947;28;20505;-80
2022/01/26 07:06:10;;;;;;;0.30;0.30;;;-1.50;99.90;;;;;;5072817;28;20461;-80
2022/01/26 07:08:37;;;;;;;2.30;2.20;;;-1.40;99.90;;;;;;5076058;28;20440;-80
2022/01/26 07:11:04;;;;;;;0.30;0.20;;;-1.50;99.90;;;;;;5076363;28;20821;-81
2022/01/26 07:13:30;;;;;;;1.57;1.47;;;-1.50;99.90;;;;;;5076292;28;20483;-82
2022/01/26 07:21:38;;;;;;;0.30;0.30;;;-1.50;99.90;;;;;;5014345;28;20460;-81
2022/01/26 07:24:06;;;;;;;0.63;0.63;;;-1.50;99.90;;;;;;5061280;28;20803;-81
2022/01/26 07:26:33;;;;;;;0.30;0.30;;;-1.50;99.90;;;;;;5076079;28;20475;-82
2022/01/26 07:29:05;;;;;;;0.40;0.40;;;-1.50;99.90;;;;;;5076430;28;20437;-82
2022/01/26 07:31:33;;;;;;;0.50;0.50;;;-1.50;99.90;;;;;;5076243;28;20434;-81
2022/01/26 07:34:00;;;;;;;0.50;0.50;;;-1.50;99.90;;;;;;5076685;28;20444;-82
2022/01/26 07:36:27;;;;;;;0.30;0.30;;;-1.50;99.90;;;;;;5076148;28;20435;-82
2022/01/26 07:39:04;;;;;;;0.50;0.50;;;-1.50;99.90;;;;;;5075891;28;20425;-82
2022/01/26 07:41:31;;;;;;;0.30;0.30;;;-1.50;99.90;;;;;;5075846;28;20803;-82
2022/01/26 07:43:58;;;;;;;0.30;0.30;;;-1.50;99.90;;;;;;5075663;28;20939;-82
2022/01/26 07:46:25;;;;;;;0.57;0.57;;;-1.50;99.90;;;;;;5075613;28;21006;-82
2022/01/26 07:48:51;;;;;;;0.30;0.20;;;-1.50;99.90;;;;;;5075768;28;20437;-82
2022/01/26 07:51:18;;;;;;;0.30;0.30;;;-1.40;99.90;;;;;;5075887;28;20452;-82
2022/01/26 07:53:45;;;;;;;1.93;1.87;;;-1.40;99.90;;;;;;5076126;28;20792;-82
2022/01/26 07:56:13;;;;;;;0.30;0.27;;;-1.30;99.90;;;;;;5075429;28;20476;-83
2022/01/26 07:58:45;;;;;;;1.33;1.23;;;-1.30;99.90;;;;;;5075511;28;20441;-83
2022/01/26 08:01:12;;;;;;;0.60;0.60;;;-1.30;99.90;;;;;;5075379;28;20434;-83
2022/01/26 08:03:39;;;;;;;0.90;0.40;;;-1.20;99.90;;;;;;5075716;28;20408;-82
2022/01/26 08:06:06;;;;;;;0.30;0.30;;;-1.20;99.90;;;;;;5075530;28;20461;-83
2022/01/26 08:08:33;;;;;;;0.40;0.40;;;-1.20;99.90;;;;;;5075278;28;20419;-83
2022/01/26 08:11:00;;;;;;;0.77;0.77;;;-1.20;99.90;;;;;;5075534;28;20836;-83
2022/01/26 08:13:28;;;;;;;0.30;0.30;;;-1.20;99.90;;;;;;5075247;28;20477;-82
2022/01/26 08:15:57;;;;;;;0.97;0.97;;;-1.20;99.90;;;;;;5075166;28;20453;-81
2022/01/26 08:18:24;;;;;;;0.50;0.50;;;-1.20;99.90;;;;;;5075029;28;20928;-81
2022/01/26 08:20:50;;;;;;;0.30;0.30;;;-1.10;99.90;;;;;;5074954;28;20480;-81
2022/01/26 08:36:16;;;;;;;0.47;0.47;;;-0.80;99.90;;;;;;5207308;22;21012;-84
2022/01/26 08:38:43;;;;;;;1.17;1.17;;;-0.80;99.90;;;;;;5035129;28;20434;-83
2022/01/26 08:41:11;;;;;;;0.30;0.30;;;-0.80;99.90;;;;;;5034958;28;20421;-83
2022/01/26 08:43:38;;;;;;;0.73;0.73;;;-0.70;99.90;;;;;;5034963;28;20447;-83
2022/01/26 08:46:05;;;;;;;0.50;0.50;;;-0.70;99.90;;;;;;5034808;28;20470;-84
2022/01/26 08:48:32;;;;;;;1.73;1.63;;;-0.70;99.90;;;;;;5034868;28;20430;-84
2022/01/26 08:50:58;;;;;;;1.03;1.03;;;-0.70;99.90;;;;;;5034854;28;20435;-83
2022/01/26 08:53:27;;;;;;;2.00;1.13;;;-0.80;99.90;;;;;;5034404;28;21005;-83
2022/01/26 08:55:53;;;;;;;0.30;0.30;;;-0.80;99.90;;;;;;5034490;28;20969;-83
2022/01/26 08:58:20;;;;;;;0.33;0.33;;;-0.90;99.90;;;;;;5034728;28;20950;-83
2022/01/26 09:00:47;;;;;;;0.30;0.27;;;-0.90;99.90;;;;;;5034636;28;20446;-84
2022/01/26 09:03:14;;;;;;;0.40;0.40;;;-0.80;99.90;;;;;;5034687;28;20428;-84
2022/01/26 09:05:40;;;;;;;6.70;1.53;;;-0.90;99.90;;;;;;5037813;28;20470;-83
2022/01/26 09:08:07;;;;;;;0.50;0.50;;;-0.80;99.90;;;;;;5038986;28;20465;-83
2022/01/26 09:10:38;;;;;;;0.63;0.63;;;-0.80;99.90;;;;;;5035887;28;20442;-84
2022/01/26 09:13:05;;;;;;;0.60;0.60;;;-0.70;99.90;;;;;;5034409;28;20474;-83
2022/01/26 09:15:32;;;;;;;1.43;1.43;;;-0.80;99.90;;;;;;5034499;28;20466;-83
2022/01/26 09:18:03;;;;;;;1.43;1.07;;;-0.70;99.90;;;;;;5034376;28;20451;-83
2022/01/26 09:20:29;;;;;;;1.53;1.43;;;-0.70;99.90;;;;;;5034330;28;20466;-83
2022/01/26 09:22:56;;;;;;;0.40;0.40;;;-0.60;99.90;;;;;;5034104;28;20815;-83
2022/01/26 09:25:23;;;;;;;0.60;0.60;;;-0.50;99.90;;;;;;5034151;28;20473;-83
2022/01/26 09:27:51;;;;;;;0.30;0.20;;;-0.50;99.90;;;;;;5034070;28;20447;-83
2022/01/26 09:30:18;;;;;;;0.40;0.40;;;-0.40;99.90;;;;;;5033336;28;21057;-83
2022/01/26 09:32:45;;;;;;;0.30;0.30;;;-0.40;99.90;;;;;;5034013;28;20486;-83
2022/01/26 09:35:13;;;;;;;2.00;1.80;;;-0.40;99.90;;;;;;5033707;28;20482;-85
2022/01/26 09:37:41;;;;;;;0.33;0.33;;;-0.30;99.90;;;;;;5033960;28;20454;-83
2022/01/26 09:40:09;;;;;;;0.50;0.50;;;-0.30;99.90;;;;;;5033888;28;20462;-83
2022/01/26 09:42:36;;;;;;;0.70;0.70;;;-0.30;99.90;;;;;;5033587;28;20446;-83
2022/01/26 09:45:06;;;;;;;0.30;0.30;;;-0.30;99.90;;;;;;5033737;28;20907;-83
2022/01/26 09:47:33;;;;;;;0.30;0.30;;;-0.30;99.90;;;;;;5033834;28;20443;-83
2022/01/26 09:50:02;;;;;;;0.30;0.30;;;-0.30;99.90;;;;;;5033736;28;20455;-83
2022/01/26 09:52:34;;;;;;;0.30;0.30;;;-0.30;99.90;;;;;;5034216;28;20562;-83
2022/01/26 09:55:02;;;;;;;1.33;1.33;;;-0.20;99.90;;;;;;5033643;28;20558;-83
2022/01/26 09:57:29;;;;;;;0.30;0.30;;;-0.20;99.90;;;;;;5033851;28;20451;-83
2022/01/26 09:59:56;;;;;;;1.00;1.00;;;-0.20;99.90;;;;;;5033700;28;20457;-83
2022/01/26 10:02:26;;;;;;;0.30;0.30;;;-0.20;99.90;;;;;;5033324;28;20796;-83
2022/01/26 10:05:00;;;;;;;0.43;0.43;;;-0.20;99.90;;;;;;5033721;28;20461;-84
2022/01/26 10:07:41;;;;;;;0.60;0.60;;;-0.40;99.90;;;;;;5033564;28;20431;-84
2022/01/26 10:15:56;;;;;;;0.33;0.33;;;-0.40;99.90;;;;;;5033462;28;20804;-84
2022/01/26 10:18:24;;;;;;;0.30;0.30;;;-0.30;99.90;;;;;;5033377;28;20418;-85
2022/01/26 10:20:53;;;;;;;0.70;0.70;;;-0.40;99.90;;;;;;5033227;28;20416;-85
2022/01/26 10:23:21;;;;;;;0.73;0.60;;;-0.40;99.90;;;;;;5033737;28;20449;-84
2022/01/26 10:26:01;;;;;;;0.30;0.30;;;-0.40;99.90;;;;;;5033275;28;20474;-85
2022/01/26 10:28:28;;;;;;;0.30;0.30;;;-0.30;99.90;;;;;;5033531;28;20797;-86
2022/01/26 10:30:55;;;;;;;0.50;0.50;;;-0.20;99.90;;;;;;5033281;28;20461;-86
2022/01/26 10:33:23;;;;;;;1.23;1.23;;;-0.10;99.90;;;;;;5033340;28;20977;-88
2022/01/26 10:35:50;;;;;;;0.30;0.23;;;0.00;99.90;;;;;;5033016;28;20466;-86
2022/01/26 10:38:17;;;;;;;0.70;0.70;;;0.10;99.90;;;;;;5032936;28;20546;-84
2022/01/26 10:40:44;;;;;;;0.40;0.30;;;0.10;99.90;;;;;;5033312;28;20807;-86
2022/01/26 10:43:13;;;;;;;0.30;0.27;;;0.20;99.90;;;;;;5035439;28;20786;-86
2022/01/26 10:45:53;;;;;;;0.80;0.50;;;0.30;99.90;;;;;;5037208;28;20969;-86
2022/01/26 10:48:30;;;;;;;0.30;0.20;;;0.30;99.90;;;;;;5037506;28;20775;-86
2022/01/26 10:53:44;;;;;;;0.60;0.60;;;0.30;99.90;;;;;;5014810;28;20506;-86
2022/01/26 10:56:10;;;;;;;0.30;0.30;;;0.30;99.90;;;;;;5036801;28;20470;-86
2022/01/26 10:58:37;;;;;;;0.30;0.30;;;0.50;99.90;;;;;;5037102;28;20821;-86
2022/01/26 11:01:05;;;;;;;0.73;0.73;;;0.50;99.90;;;;;;5036836;28;20411;-86
2022/01/26 11:03:33;;;;;;;0.30;0.30;;;0.50;99.90;;;;;;5036816;28;20427;-87
2022/01/26 11:06:01;;;;;;;0.30;0.30;;;0.50;99.90;;;;;;5036755;28;20478;-86
2022/01/26 11:08:29;;;;;;;0.30;0.30;;;0.50;99.90;;;;;;5036977;28;20450;-86
2022/01/26 11:10:57;;;;;;;0.30;0.30;;;0.60;99.90;;;;;;5037056;28;20514;-86
2022/01/26 11:13:26;;;;;;;0.30;0.30;;;0.60;99.90;;;;;;5037455;28;20474;-87
2022/01/26 11:15:54;;;;;;;0.30;0.27;;;0.60;99.90;;;;;;5037486;28;20451;-87
2022/01/26 11:18:22;;;;;;;0.40;0.40;;;0.70;99.90;;;;;;5036634;28;20498;-86
2022/01/26 11:20:52;;;;;;;0.40;0.40;;;0.60;99.90;;;;;;5036750;28;20431;-86
2022/01/26 11:23:20;;;;;;;0.80;0.80;;;0.60;99.90;;;;;;5036619;28;20960;-86
2022/01/26 11:25:48;;;;;;;8.23;1.07;;;0.50;99.90;;;;;;5036574;28;20478;-86
2022/01/26 11:28:18;;;;;;;0.67;0.67;;;0.60;99.90;;;;;;5036929;28;20426;-86
2022/01/26 11:30:44;;;;;;;0.50;0.50;;;0.50;99.90;;;;;;5036755;28;20439;-86
2022/01/26 11:33:17;;;;;;;0.50;0.50;;;0.50;99.90;;;;;;5036441;28;20470;-87
2022/01/26 11:35:48;;;;;;;0.40;0.40;;;0.50;99.90;;;;;;5036244;28;20856;-86
2022/01/26 11:39:14;;;;;;;0.30;0.27;;;0.40;99.90;;;;;;5036460;28;20469;-87
2022/01/26 11:47:18;;;;;;;0.40;0.40;;;0.50;99.90;;;;;;5036415;28;20783;-87
2022/01/26 11:49:46;;;;;;;1.03;1.03;;;0.60;99.90;;;;;;5035937;28;20423;-87
2022/01/26 11:52:20;;;;;;;0.30;0.30;;;0.60;99.90;;;;;;5036032;28;20446;-86
2022/01/26 11:54:52;;;;;;;0.40;0.40;;;0.60;99.90;;;;;;5035605;28;20458;-86
2022/01/26 11:57:21;;;;;;;0.30;0.20;;;0.60;99.90;;;;;;5035711;28;20474;-86
2022/01/26 12:00:00;;;;;;;0.53;0.53;;;0.70;99.90;;;;;;5036063;28;20439;-86
2022/01/26 12:02:48;;;;;;;0.73;0.73;;;0.70;99.90;;;;;;5035964;28;20435;-86
2022/01/26 12:05:19;;;;;;;0.30;0.20;;;0.70;99.90;;;;;;5035707;28;20475;-86
2022/01/26 12:07:50;;;;;;;0.30;0.20;;;0.90;99.90;;;;;;5036020;28;20832;-87
2022/01/26 12:10:25;;;;;;;0.50;0.50;;;0.90;99.90;;;;;;5036031;28;20438;-87
2022/01/26 12:13:03;;;;;;;0.40;0.40;;;1.00;99.90;;;;;;5035481;28;20435;-86
2022/01/26 12:15:39;;;;;;;1.27;1.27;;;1.10;99.90;;;;;;5035709;28;20509;-87
2022/01/26 12:18:18;;;;;;;0.50;0.50;;;1.10;99.90;;;;;;5035868;28;20521;-87
2022/01/26 12:32:18;;;;;;;0.40;0.40;;;1.20;99.90;;;;;;5035642;28;20477;-87
2022/01/26 12:34:52;;;;;;;0.30;0.20;;;1.20;99.90;;;;;;5035181;28;20557;-87
2022/01/26 12:37:34;;;;;;;0.30;0.27;;;1.10;99.90;;;;;;5035646;28;20770;-87
2022/01/26 12:43:05;;;;;;;1.60;1.60;;;1.10;99.90;;;;;;5035301;28;20418;-87
2022/01/26 12:45:32;;;;;;;0.33;0.33;;;1.20;99.90;;;;;;5035484;28;21033;-87
2022/01/26 12:48:00;;;;;;;1.90;1.17;;;1.30;99.90;;;;;;5035471;28;20526;-87
2022/01/26 12:50:28;;;;;;;0.50;0.50;;;1.40;99.90;;;;;;5035202;28;20458;-87
2022/01/26 12:52:57;;;;;;;0.70;0.70;;;1.50;99.90;;;;;;5035081;28;20503;-87
2022/01/26 12:55:25;;;;;;;0.60;0.60;;;1.60;99.90;;;;;;5035590;28;20459;-87
2022/01/26 12:57:55;;;;;;;0.30;0.30;;;1.50;99.90;;;;;;5035528;28;20454;-87
2022/01/26 13:00:24;;;;;;;0.30;0.30;;;1.40;99.90;;;;;;5035368;28;20439;-87
2022/01/26 13:02:51;;;;;;;0.80;0.80;;;1.40;99.90;;;;;;5035286;28;20426;-87
2022/01/26 13:05:24;;;;;;;0.63;0.63;;;1.40;99.90;;;;;;5034236;28;20475;-88
2022/01/26 13:08:00;;;;;;;0.30;0.30;;;1.40;99.90;;;;;;5034901;28;21024;-87
2022/01/26 13:10:28;;;;;;;1.20;1.20;;;1.30;99.90;;;;;;5035014;28;20817;-88
2022/01/26 13:12:56;;;;;;;1.53;1.43;;;1.30;99.90;;;;;;5035265;28;20482;-88
2022/01/26 13:15:39;;;;;;;1.03;0.93;;;1.30;99.90;;;;;;5035101;28;20475;-88
2022/01/26 13:18:19;;;;;;;4.20;1.23;;;1.40;99.90;;;;;;5034973;28;20441;-87
2022/01/26 13:21:05;;;;;;;0.53;0.53;;;1.50;99.90;;;;;;5040987;28;20446;-87
2022/01/26 13:23:44;;;;;;;0.30;0.30;;;1.50;99.90;;;;;;5039498;28;20445;-88
2022/01/26 13:26:19;;;;;;;0.40;0.40;;;1.50;99.90;;;;;;5034895;28;20474;-87
2022/01/26 13:29:00;;;;;;;0.40;0.40;;;1.50;99.90;;;;;;5034376;28;20438;-84
2022/01/26 13:37:16;;;;;;;1.00;1.00;;;1.20;99.90;;;;;;5023312;28;20964;-85
2022/01/26 13:39:53;;;;;;;0.30;0.30;;;1.20;99.90;;;;;;5034062;28;20446;-85
2022/01/26 13:43:09;;;;;;;0.50;0.50;;;1.20;99.90;;;;;;5034057;28;20837;-85
2022/01/26 13:45:58;;;;;;;0.30;0.30;;;1.20;99.90;;;;;;5033457;28;20465;-84
2022/01/26 13:48:57;;;;;;;1.43;1.43;;;1.20;99.90;;;;;;5033914;28;20455;-84
2022/01/26 13:51:34;;;;;;;0.60;0.60;;;1.20;99.90;;;;;;5034174;28;20520;-84
2022/01/26 13:54:25;;;;;;;0.30;0.30;;;1.30;99.90;;;;;;5034147;28;20478;-84
2022/01/26 13:57:07;;;;;;;1.50;1.50;;;1.40;99.90;;;;;;5033488;28;20467;-84
2022/01/26 13:59:43;;;;;;;0.30;0.30;;;1.30;99.90;;;;;;5033569;28;20817;-84
2022/01/26 14:02:12;;;;;;;0.87;0.87;;;1.20;99.90;;;;;;5033846;28;20803;-85
2022/01/26 14:04:39;;;;;;;0.50;0.50;;;1.20;99.90;;;;;;5033665;28;20435;-84
2022/01/26 14:07:06;;;;;;;0.50;0.50;;;1.30;99.90;;;;;;5033684;28;20446;-83
2022/01/26 14:09:33;;;;;;;0.30;0.20;;;1.30;99.90;;;;;;5033639;28;20477;-84
2022/01/26 14:12:01;;;;;;;0.50;0.40;;;1.30;99.90;;;;;;5033752;28;20458;-83
2022/01/26 14:14:33;;;;;;;1.80;0.73;;;1.20;99.90;;;;;;5034049;28;20875;-83
2022/01/26 14:17:03;;;;;;;0.50;0.40;;;1.20;99.90;;;;;;5033408;28;20438;-83
2022/01/26 14:19:50;;;;;;;0.30;0.30;;;1.20;99.90;;;;;;5033340;28;20545;-83
2022/01/26 14:22:35;;;;;;;0.30;0.30;;;1.20;99.90;;;;;;5033336;28;20940;-83
2022/01/26 14:25:17;;;;;;;2.10;0.80;;;1.20;99.90;;;;;;5033535;28;20498;-83
2022/01/26 14:27:47;;;;;;;0.50;0.50;;;1.20;99.90;;;;;;5033584;28;20855;-83
2022/01/26 14:30:30;;;;;;;0.30;0.30;;;1.20;99.90;;;;;;5033857;28;20405;-84
2022/01/26 14:33:09;;;;;;;0.57;0.53;;;1.20;99.90;;;;;;5033276;28;20451;-83
2022/01/26 14:36:18;;;;;;;1.13;1.07;;;1.20;99.90;;;;;;5032941;28;20486;-83
2022/01/26 14:53:11;;;;;;;2.00;1.13;;;1.00;99.90;;;;;;5033430;28;20449;-83
2022/01/26 15:08:39;;;;;;;0.30;0.20;;;0.90;99.90;;;;;;5033060;28;20430;-84
2022/01/26 15:18:59;;;;;;;0.40;0.40;;;0.60;99.90;;;;;;5033632;28;20410;-83
2022/01/26 15:42:37;;;;;;;0.30;0.30;;;0.40;99.90;;;;;;5036096;28;20437;-84
2022/01/26 15:50:45;;;;;;;0.73;0.73;;;0.30;99.90;;;;;;5018663;28;20504;-84
2022/01/26 15:53:19;;;;;;;0.30;0.20;;;0.30;99.90;;;;;;5035767;28;20445;-84
2022/01/26 15:58:45;;;;;;;1.00;0.83;;;0.30;99.90;;;;;;5035787;28;20465;-84
2022/01/26 16:06:57;;;;;;;0.67;0.67;;;0.30;99.90;;;;;;5035578;28;20525;-84
2022/01/26 16:19:13;;;;;;;0.30;0.30;;;0.20;99.90;;;;;;5035675;28;20787;-84